sensor_id;sensor_type;location;lat;lon;timestamp;pressure;altitude;pressure_sealevel;temperature;humidity
71194;BME280;58903;47.210;8.618;2023-03-26T00:00:04;93863.28;;;26.48;40.25
71194;BME280;58903;47.210;8.618;2023-03-26T00:02:44;93868.78;;;26.48;39.99
71194;BME280;58903;47.210;8.618;2023-03-26T00:05:10;93869.00;;;26.50;39.97
71194;BME280;58903;47.210;8.618;2023-03-26T00:07:58;93857.75;;;26.48;40.12
71194;BME280;58903;47.210;8.618;2023-03-26T00:10:49;93857.75;;;26.48;40.25
71194;BME280;58903;47.210;8.618;2023-03-26T00:13:29;93849.47;;;26.48;40.51
71194;BME280;58903;47.210;8.618;2023-03-26T00:15:56;93855.09;;;26.42;39.91
71194;BME280;58903;47.210;8.618;2023-03-26T00:18:30;93847.06;;;26.44;40.34
71194;BME280;58903;47.210;8.618;2023-03-26T00:20:57;93844.81;;;26.43;40.00
71194;BME280;58903;47.210;8.618;2023-03-26T00:23:27;93846.31;;;26.44;39.95
71194;BME280;58903;47.210;8.618;2023-03-26T00:25:57;93838.78;;;26.44;40.26
71194;BME280;58903;47.210;8.618;2023-03-26T00:28:46;93834.72;;;26.45;40.63
71194;BME280;58903;47.210;8.618;2023-03-26T00:31:17;93835.81;;;26.42;39.87
71194;BME280;58903;47.210;8.618;2023-03-26T00:33:43;93833.78;;;26.43;39.96
71194;BME280;58903;47.210;8.618;2023-03-26T00:36:15;93839.00;;;26.46;39.94
71194;BME280;58903;47.210;8.618;2023-03-26T00:38:43;93842.25;;;26.45;40.35
71194;BME280;58903;47.210;8.618;2023-03-26T00:41:12;93836.53;;;26.43;40.32
71194;BME280;58903;47.210;8.618;2023-03-26T00:43:56;93834.53;;;26.43;39.83
71194;BME280;58903;47.210;8.618;2023-03-26T00:46:29;93833.56;;;26.41;39.69
71194;BME280;58903;47.210;8.618;2023-03-26T00:48:55;93835.81;;;26.42;40.03
71194;BME280;58903;47.210;8.618;2023-03-26T00:51:27;93830.50;;;26.44;40.13
71194;BME280;58903;47.210;8.618;2023-03-26T00:53:56;93826.78;;;26.42;40.05
71194;BME280;58903;47.210;8.618;2023-03-26T00:56:24;93836.31;;;26.41;40.54
71194;BME280;58903;47.210;8.618;2023-03-26T00:58:50;93834.84;;;26.40;39.99
71194;BME280;58903;47.210;8.618;2023-03-26T01:01:21;93832.09;;;26.40;40.06
71194;BME280;58903;47.210;8.618;2023-03-26T01:03:53;93815.53;;;26.40;39.88
71194;BME280;58903;47.210;8.618;2023-03-26T01:06:30;93816.28;;;26.40;40.56
71194;BME280;58903;47.210;8.618;2023-03-26T01:09:16;93805.03;;;26.38;40.38
71194;BME280;58903;47.210;8.618;2023-03-26T01:11:44;93807.28;;;26.40;40.37
71194;BME280;58903;47.210;8.618;2023-03-26T01:14:15;93800.25;;;26.39;40.26
71194;BME280;58903;47.210;8.618;2023-03-26T01:17:05;93795.50;;;26.39;40.35
71194;BME280;58903;47.210;8.618;2023-03-26T01:19:56;93792.53;;;26.37;40.31
71194;BME280;58903;47.210;8.618;2023-03-26T01:22:27;93796.53;;;26.36;40.38
71194;BME280;58903;47.210;8.618;2023-03-26T01:24:53;93800.59;;;26.35;40.20
71194;BME280;58903;47.210;8.618;2023-03-26T01:30:38;93775.56;;;26.33;39.86
71194;BME280;58903;47.210;8.618;2023-03-26T01:36:05;93764.00;;;26.35;40.57
71194;BME280;58903;47.210;8.618;2023-03-26T01:41:24;93754.88;;;26.27;40.32
71194;BME280;58903;47.210;8.618;2023-03-26T01:43:59;93758.91;;;26.26;40.10
71194;BME280;58903;47.210;8.618;2023-03-26T01:46:37;93741.09;;;26.27;40.34
71194;BME280;58903;47.210;8.618;2023-03-26T01:49:06;93729.88;;;26.25;40.77
71194;BME280;58903;47.210;8.618;2023-03-26T01:51:40;93738.34;;;26.27;40.94
71194;BME280;58903;47.210;8.618;2023-03-26T01:54:13;93725.59;;;26.24;40.85
71194;BME280;58903;47.210;8.618;2023-03-26T02:08:44;93690.66;;;26.19;41.02
71194;BME280;58903;47.210;8.618;2023-03-26T02:11:19;93675.78;;;26.22;40.77
71194;BME280;58903;47.210;8.618;2023-03-26T02:14:03;93668.81;;;26.21;40.94
71194;BME280;58903;47.210;8.618;2023-03-26T02:16:47;93664.88;;;26.16;40.30
71194;BME280;58903;47.210;8.618;2023-03-26T02:19:14;93657.88;;;26.15;41.12
71194;BME280;58903;47.210;8.618;2023-03-26T02:21:48;93650.69;;;26.12;40.67
71194;BME280;58903;47.210;8.618;2023-03-26T02:24:17;93645.69;;;26.10;41.15
71194;BME280;58903;47.210;8.618;2023-03-26T02:26:43;93643.69;;;26.11;41.35
71194;BME280;58903;47.210;8.618;2023-03-26T02:29:13;93642.72;;;26.08;40.64
71194;BME280;58903;47.210;8.618;2023-03-26T02:31:52;93639.44;;;26.10;40.43
71194;BME280;58903;47.210;8.618;2023-03-26T02:34:18;93624.19;;;26.09;41.15
71194;BME280;58903;47.210;8.618;2023-03-26T02:36:45;93624.94;;;26.09;41.34
71194;BME280;58903;47.210;8.618;2023-03-26T02:39:31;93617.38;;;26.10;40.50
71194;BME280;58903;47.210;8.618;2023-03-26T02:41:57;93608.41;;;26.09;41.10
71194;BME280;58903;47.210;8.618;2023-03-26T02:44:25;93606.13;;;26.08;41.25
71194;BME280;58903;47.210;8.618;2023-03-26T02:46:58;93605.41;;;26.07;40.98
71194;BME280;58903;47.210;8.618;2023-03-26T02:49:43;93600.59;;;26.08;41.37
71194;BME280;58903;47.210;8.618;2023-03-26T02:52:14;93585.59;;;26.09;40.49
71194;BME280;58903;47.210;8.618;2023-03-26T02:54:49;93575.72;;;26.13;41.67
71194;BME280;58903;47.210;8.618;2023-03-26T02:57:24;93573.19;;;26.15;40.59
71194;BME280;58903;47.210;8.618;2023-03-26T03:00:26;93555.50;;;26.11;41.16
71194;BME280;58903;47.210;8.618;2023-03-26T03:02:52;93559.28;;;26.08;41.41
71194;BME280;58903;47.210;8.618;2023-03-26T03:05:19;93557.28;;;26.08;41.12
71194;BME280;58903;47.210;8.618;2023-03-26T03:07:45;93555.78;;;26.07;41.34
71194;BME280;58903;47.210;8.618;2023-03-26T03:10:14;93560.56;;;26.07;41.43
71194;BME280;58903;47.210;8.618;2023-03-26T03:12:40;93552.09;;;26.05;41.06
71194;BME280;58903;47.210;8.618;2023-03-26T03:15:07;93554.84;;;26.05;40.73
71194;BME280;58903;47.210;8.618;2023-03-26T03:17:36;93572.63;;;26.04;40.79
71194;BME280;58903;47.210;8.618;2023-03-26T03:20:03;93564.91;;;26.02;40.71
71194;BME280;58903;47.210;8.618;2023-03-26T03:22:32;93549.84;;;26.03;40.76
71194;BME280;58903;47.210;8.618;2023-03-26T03:25:05;93540.88;;;26.03;40.81
71194;BME280;58903;47.210;8.618;2023-03-26T03:27:39;93538.63;;;26.01;41.46
71194;BME280;58903;47.210;8.618;2023-03-26T03:30:06;93527.09;;;26.03;40.88
71194;BME280;58903;47.210;8.618;2023-03-26T03:32:33;93523.59;;;26.02;41.54
71194;BME280;58903;47.210;8.618;2023-03-26T03:34:58;93534.41;;;26.00;41.46
71194;BME280;58903;47.210;8.618;2023-03-26T03:37:29;93529.63;;;26.01;41.55
71194;BME280;58903;47.210;8.618;2023-03-26T03:39:56;93523.38;;;26.00;41.09
71194;BME280;58903;47.210;8.618;2023-03-26T03:42:24;93535.88;;;26.01;41.52
71194;BME280;58903;47.210;8.618;2023-03-26T03:44:59;93536.63;;;26.02;41.55
71194;BME280;58903;47.210;8.618;2023-03-26T03:47:28;93520.63;;;26.00;41.16
71194;BME280;58903;47.210;8.618;2023-03-26T03:49:56;93519.34;;;26.01;41.63
71194;BME280;58903;47.210;8.618;2023-03-26T03:52:25;93517.13;;;26.00;40.86
71194;BME280;58903;47.210;8.618;2023-03-26T03:54:54;93510.34;;;26.01;41.02
71194;BME280;58903;47.210;8.618;2023-03-26T03:57:30;93504.09;;;26.00;41.00
71194;BME280;58903;47.210;8.618;2023-03-26T03:59:59;93503.88;;;25.98;40.98
71194;BME280;58903;47.210;8.618;2023-03-26T04:02:25;93503.88;;;25.98;40.77
71194;BME280;58903;47.210;8.618;2023-03-26T04:04:55;93507.16;;;25.97;41.33
71194;BME280;58903;47.210;8.618;2023-03-26T04:07:27;93502.38;;;25.97;41.20
71194;BME280;58903;47.210;8.618;2023-03-26T04:10:25;93516.38;;;25.99;40.79
71194;BME280;58903;47.210;8.618;2023-03-26T04:13:01;93490.84;;;25.99;41.03
71194;BME280;58903;47.210;8.618;2023-03-26T04:15:29;93487.34;;;25.98;41.60
71194;BME280;58903;47.210;8.618;2023-03-26T04:17:57;93473.56;;;25.98;40.95
71194;BME280;58903;47.210;8.618;2023-03-26T04:20:33;93473.56;;;25.98;41.55
71194;BME280;58903;47.210;8.618;2023-03-26T04:23:19;93479.09;;;25.98;41.51
71194;BME280;58903;47.210;8.618;2023-03-26T04:25:51;93474.09;;;25.97;40.87
71194;BME280;58903;47.210;8.618;2023-03-26T04:28:46;93459.81;;;25.98;40.87
71194;BME280;58903;47.210;8.618;2023-03-26T04:31:37;93448.78;;;25.98;41.02
71194;BME280;58903;47.210;8.618;2023-03-26T04:34:20;93459.25;;;26.00;41.05
71194;BME280;58903;47.210;8.618;2023-03-26T04:36:50;93456.28;;;25.98;41.56
71194;BME280;58903;47.210;8.618;2023-03-26T04:39:20;93458.31;;;25.97;41.49
71194;BME280;58903;47.210;8.618;2023-03-26T04:41:54;93440.50;;;25.98;41.02
71194;BME280;58903;47.210;8.618;2023-03-26T04:44:20;93441.03;;;25.97;41.13
71194;BME280;58903;47.210;8.618;2023-03-26T04:46:49;93430.00;;;25.97;40.68
71194;BME280;58903;47.210;8.618;2023-03-26T04:49:18;93434.81;;;25.96;40.78
71194;BME280;58903;47.210;8.618;2023-03-26T04:51:44;93443.78;;;25.97;40.45
71194;BME280;58903;47.210;8.618;2023-03-26T04:54:15;93434.81;;;25.96;40.71
71194;BME280;58903;47.210;8.618;2023-03-26T04:57:21;93422.50;;;25.97;41.47
71194;BME280;58903;47.210;8.618;2023-03-26T04:59:49;93419.72;;;25.97;41.00
71194;BME280;58903;47.210;8.618;2023-03-26T05:02:15;93410.41;;;26.00;41.15
71194;BME280;58903;47.210;8.618;2023-03-26T05:04:42;93407.66;;;26.00;41.44
71194;BME280;58903;47.210;8.618;2023-03-26T05:07:16;93402.88;;;26.01;41.34
71194;BME280;58903;47.210;8.618;2023-03-26T05:09:45;93395.13;;;25.99;41.21
71194;BME280;58903;47.210;8.618;2023-03-26T05:12:14;93395.13;;;25.99;40.65
71194;BME280;58903;47.210;8.618;2023-03-26T05:14:41;93384.66;;;25.98;41.41
71194;BME280;58903;47.210;8.618;2023-03-26T05:17:13;93380.41;;;25.97;41.24
71194;BME280;58903;47.210;8.618;2023-03-26T05:19:39;93391.97;;;25.95;41.42
71194;BME280;58903;47.210;8.618;2023-03-26T05:22:06;93388.69;;;25.97;41.48
71194;BME280;58903;47.210;8.618;2023-03-26T05:24:32;93376.19;;;25.96;40.98
71194;BME280;58903;47.210;8.618;2023-03-26T05:26:58;93360.94;;;25.95;40.78
71194;BME280;58903;47.210;8.618;2023-03-26T05:29:26;93345.88;;;25.96;40.96
71194;BME280;58903;47.210;8.618;2023-03-26T05:31:59;93350.84;;;25.97;41.21
71194;BME280;58903;47.210;8.618;2023-03-26T05:34:29;93360.59;;;25.98;41.06
71194;BME280;58903;47.210;8.618;2023-03-26T05:37:04;93372.38;;;25.99;40.93
71194;BME280;58903;47.210;8.618;2023-03-26T05:40:11;93382.66;;;25.98;41.55
71194;BME280;58903;47.210;8.618;2023-03-26T05:43:19;93389.44;;;25.97;40.55
71194;BME280;58903;47.210;8.618;2023-03-26T05:46:01;93396.44;;;25.98;41.51
71194;BME280;58903;47.210;8.618;2023-03-26T05:48:43;93379.50;;;25.94;41.41
71194;BME280;58903;47.210;8.618;2023-03-26T05:51:11;93386.28;;;25.93;40.98
71194;BME280;58903;47.210;8.618;2023-03-26T05:53:40;93390.31;;;25.92;40.97
71194;BME280;58903;47.210;8.618;2023-03-26T05:56:28;93369.00;;;25.93;41.11
71194;BME280;58903;47.210;8.618;2023-03-26T05:59:03;93369.53;;;25.91;41.43
71194;BME280;58903;47.210;8.618;2023-03-26T06:01:42;93349.72;;;25.93;41.37
71194;BME280;58903;47.210;8.618;2023-03-26T06:04:19;93323.97;;;25.90;40.97
71194;BME280;58903;47.210;8.618;2023-03-26T06:07:02;93321.97;;;25.91;41.22
71194;BME280;58903;47.210;8.618;2023-03-26T06:09:33;93298.97;;;25.88;41.29
71194;BME280;58903;47.210;8.618;2023-03-26T06:12:00;93317.94;;;25.92;40.70
71194;BME280;58903;47.210;8.618;2023-03-26T06:14:28;93309.13;;;25.93;41.42
71194;BME280;58903;47.210;8.618;2023-03-26T06:16:58;93301.06;;;25.95;40.92
71194;BME280;58903;47.210;8.618;2023-03-26T06:19:29;93281.78;;;25.95;41.73
71194;BME280;58903;47.210;8.618;2023-03-26T06:22:05;93284.53;;;25.95;41.03
71194;BME280;58903;47.210;8.618;2023-03-26T06:24:51;93273.31;;;25.93;40.71
71194;BME280;58903;47.210;8.618;2023-03-26T06:27:20;93265.03;;;25.93;40.82
71194;BME280;58903;47.210;8.618;2023-03-26T06:29:47;93255.31;;;25.92;41.26
71194;BME280;58903;47.210;8.618;2023-03-26T06:32:14;93253.28;;;25.93;41.11
71194;BME280;58903;47.210;8.618;2023-03-26T06:34:41;93256.78;;;25.93;41.58
71194;BME280;58903;47.210;8.618;2023-03-26T06:37:15;93246.31;;;25.92;41.18
71194;BME280;58903;47.210;8.618;2023-03-26T06:39:41;93255.53;;;25.94;41.44
71194;BME280;58903;47.210;8.618;2023-03-26T06:42:19;93293.72;;;25.98;40.78
71194;BME280;58903;47.210;8.618;2023-03-26T06:44:55;93312.81;;;25.96;40.88
71194;BME280;58903;47.210;8.618;2023-03-26T06:47:21;93328.59;;;25.95;41.66
71194;BME280;58903;47.210;8.618;2023-03-26T06:50:19;93339.63;;;25.95;41.06
71194;BME280;58903;47.210;8.618;2023-03-26T06:53:06;93345.13;;;25.95;41.24
71194;BME280;58903;47.210;8.618;2023-03-26T06:55:40;93340.91;;;25.94;40.78
71194;BME280;58903;47.210;8.618;2023-03-26T06:58:17;93354.91;;;25.96;40.83
71194;BME280;58903;47.210;8.618;2023-03-26T07:00:45;93363.16;;;25.96;41.83
71194;BME280;58903;47.210;8.618;2023-03-26T07:03:21;93378.41;;;25.97;40.91
71194;BME280;58903;47.210;8.618;2023-03-26T07:05:57;93353.41;;;25.95;41.17
71194;BME280;58903;47.210;8.618;2023-03-26T07:08:33;93347.03;;;26.00;40.76
71194;BME280;58903;47.210;8.618;2023-03-26T07:11:09;93343.41;;;26.05;40.73
71194;BME280;58903;47.210;8.618;2023-03-26T07:13:45;93348.91;;;26.05;40.32
71194;BME280;58903;47.210;8.618;2023-03-26T07:16:12;93353.28;;;26.01;40.74
71194;BME280;58903;47.210;8.618;2023-03-26T07:18:47;93330.50;;;26.00;40.93
71194;BME280;58903;47.210;8.618;2023-03-26T07:21:24;93329.56;;;25.98;41.60
71194;BME280;58903;47.210;8.618;2023-03-26T07:23:51;93318.53;;;25.98;40.54
71194;BME280;58903;47.210;8.618;2023-03-26T07:29:19;93310.28;;;25.98;41.34
71194;BME280;58903;47.210;8.618;2023-03-26T07:34:52;93297.97;;;25.99;41.59
71194;BME280;58903;47.210;8.618;2023-03-26T07:37:45;93294.13;;;26.02;41.63
71194;BME280;58903;47.210;8.618;2023-03-26T07:46:02;93269.69;;;25.98;40.70
71194;BME280;58903;47.210;8.618;2023-03-26T07:48:43;93278.69;;;25.99;41.49
71194;BME280;58903;47.210;8.618;2023-03-26T07:51:13;93282.16;;;25.99;40.98
71194;BME280;58903;47.210;8.618;2023-03-26T07:54:12;93278.00;;;26.06;40.83
71194;BME280;58903;47.210;8.618;2023-03-26T07:56:52;93276.34;;;26.03;41.36
71194;BME280;58903;47.210;8.618;2023-03-26T08:00:11;93276.13;;;26.01;41.07
71194;BME280;58903;47.210;8.618;2023-03-26T08:12:23;93238.63;;;25.98;40.96
71194;BME280;58903;47.210;8.618;2023-03-26T08:18:37;93243.78;;;26.01;40.90
71194;BME280;58903;47.210;8.618;2023-03-26T08:27:35;93229.81;;;25.99;42.14
71194;BME280;58903;47.210;8.618;2023-03-26T08:30:30;93236.06;;;26.00;42.10
71194;BME280;58903;47.210;8.618;2023-03-26T08:33:34;93231.31;;;26.00;41.89
71194;BME280;58903;47.210;8.618;2023-03-26T08:36:04;93236.63;;;25.98;41.70
71194;BME280;58903;47.210;8.618;2023-03-26T08:38:30;93236.81;;;26.00;41.71
71194;BME280;58903;47.210;8.618;2023-03-26T08:59:24;93220.31;;;26.08;42.56
71194;BME280;58903;47.210;8.618;2023-03-26T09:11:40;93227.69;;;26.05;42.73
71194;BME280;58903;47.210;8.618;2023-03-26T09:26:42;93254.16;;;26.08;42.91
71194;BME280;58903;47.210;8.618;2023-03-26T09:38:33;93306.03;;;26.17;42.32
71194;BME280;58903;47.210;8.618;2023-03-26T09:49:52;93314.91;;;26.24;42.42
71194;BME280;58903;47.210;8.618;2023-03-26T09:52:48;93323.38;;;26.26;42.20
71194;BME280;58903;47.210;8.618;2023-03-26T09:55:36;93328.88;;;26.26;42.76
71194;BME280;58903;47.210;8.618;2023-03-26T10:06:47;93302.59;;;26.25;42.69
71194;BME280;58903;47.210;8.618;2023-03-26T10:15:33;93323.84;;;26.16;42.69
71194;BME280;58903;47.210;8.618;2023-03-26T10:18:08;93330.44;;;26.13;42.77
71194;BME280;58903;47.210;8.618;2023-03-26T10:23:34;93305.44;;;26.11;42.88
71194;BME280;58903;47.210;8.618;2023-03-26T10:28:57;93301.19;;;26.10;42.62
71194;BME280;58903;47.210;8.618;2023-03-26T10:37:37;93262.19;;;26.06;42.76
71194;BME280;58903;47.210;8.618;2023-03-26T10:40:32;93270.47;;;26.06;43.48
71194;BME280;58903;47.210;8.618;2023-03-26T10:52:08;93278.41;;;26.10;43.32
71194;BME280;58903;47.210;8.618;2023-03-26T10:58:26;93275.44;;;26.08;42.53
71194;BME280;58903;47.210;8.618;2023-03-26T11:01:21;93273.44;;;26.08;42.83
71194;BME280;58903;47.210;8.618;2023-03-26T11:04:14;93273.97;;;26.07;43.56
71194;BME280;58903;47.210;8.618;2023-03-26T11:16:34;93269.63;;;26.11;42.69
71194;BME280;58903;47.210;8.618;2023-03-26T11:19:47;93282.31;;;26.14;43.31
71194;BME280;58903;47.210;8.618;2023-03-26T11:22:54;93279.41;;;26.20;43.08
71194;BME280;58903;47.210;8.618;2023-03-26T11:35:04;93249.50;;;26.24;42.75
71194;BME280;58903;47.210;8.618;2023-03-26T11:37:52;93256.28;;;26.23;42.73
71194;BME280;58903;47.210;8.618;2023-03-26T11:40:37;93259.56;;;26.22;42.69
71194;BME280;58903;47.210;8.618;2023-03-26T11:43:11;93256.63;;;26.20;42.64
71194;BME280;58903;47.210;8.618;2023-03-26T11:45:41;93243.78;;;26.22;43.19
71194;BME280;58903;47.210;8.618;2023-03-26T11:51:06;93256.44;;;26.17;42.66
71194;BME280;58903;47.210;8.618;2023-03-26T11:53:34;93245.78;;;26.22;42.22
71194;BME280;58903;47.210;8.618;2023-03-26T12:05:21;93233.38;;;26.36;42.64
71194;BME280;58903;47.210;8.618;2023-03-26T12:08:01;93230.09;;;26.37;42.21
71194;BME280;58903;47.210;8.618;2023-03-26T12:10:38;93223.06;;;26.36;42.66
71194;BME280;58903;47.210;8.618;2023-03-26T12:13:38;93212.22;;;26.31;42.78
71194;BME280;58903;47.210;8.618;2023-03-26T12:16:30;93206.50;;;26.29;42.23
71194;BME280;58903;47.210;8.618;2023-03-26T12:19:24;93232.59;;;26.28;42.74
71194;BME280;58903;47.210;8.618;2023-03-26T12:21:52;93223.44;;;26.33;42.01
71194;BME280;58903;47.210;8.618;2023-03-26T12:24:32;93220.31;;;26.36;42.30
71194;BME280;58903;47.210;8.618;2023-03-26T12:27:27;93197.38;;;26.41;42.14
71194;BME280;58903;47.210;8.618;2023-03-26T12:30:21;93185.81;;;26.43;41.94
71194;BME280;58903;47.210;8.618;2023-03-26T12:33:04;93187.09;;;26.42;42.37
71194;BME280;58903;47.210;8.618;2023-03-26T12:35:33;93187.28;;;26.44;42.10
71194;BME280;58903;47.210;8.618;2023-03-26T12:38:22;93172.94;;;26.45;42.21
71194;BME280;58903;47.210;8.618;2023-03-26T12:46:24;93157.34;;;26.48;42.43
71194;BME280;58903;47.210;8.618;2023-03-26T12:48:53;93156.97;;;26.44;42.58
71194;BME280;58903;47.210;8.618;2023-03-26T12:54:18;93158.47;;;26.52;41.74
71194;BME280;58903;47.210;8.618;2023-03-26T13:16:43;93141.22;;;26.67;42.88
71194;BME280;58903;47.210;8.618;2023-03-26T13:28:41;93105.22;;;26.80;43.13
71194;BME280;58903;47.210;8.618;2023-03-26T13:46:43;93065.88;;;26.87;41.86
71194;BME280;58903;47.210;8.618;2023-03-26T13:49:43;93068.66;;;26.87;42.34
71194;BME280;58903;47.210;8.618;2023-03-26T14:01:31;93046.03;;;26.81;42.09
71194;BME280;58903;47.210;8.618;2023-03-26T14:52:07;93226.78;;;26.74;41.76
71194;BME280;58903;47.210;8.618;2023-03-26T14:54:40;93191.13;;;26.76;41.56
71194;BME280;58903;47.210;8.618;2023-03-26T15:10:15;93201.97;;;26.82;41.61
71194;BME280;58903;47.210;8.618;2023-03-26T15:13:09;93198.31;;;26.79;41.42
71194;BME280;58903;47.210;8.618;2023-03-26T15:19:27;93213.38;;;26.78;41.14
71194;BME280;58903;47.210;8.618;2023-03-26T15:32:15;93206.94;;;26.76;41.08
71194;BME280;58903;47.210;8.618;2023-03-26T15:50:31;93211.09;;;26.69;41.17
71194;BME280;58903;47.210;8.618;2023-03-26T15:58:59;93212.59;;;26.70;41.28
71194;BME280;58903;47.210;8.618;2023-03-26T16:04:52;93230.22;;;26.67;40.57
71194;BME280;58903;47.210;8.618;2023-03-26T16:07:47;93223.97;;;26.67;41.26
71194;BME280;58903;47.210;8.618;2023-03-26T16:10:33;93239.06;;;26.66;40.89
71194;BME280;58903;47.210;8.618;2023-03-26T16:13:39;93245.09;;;26.64;40.61
71194;BME280;58903;47.210;8.618;2023-03-26T16:21:35;93240.13;;;26.63;40.81
71194;BME280;58903;47.210;8.618;2023-03-26T16:26:51;93274.31;;;26.60;41.03
71194;BME280;58903;47.210;8.618;2023-03-26T16:29:20;93349.00;;;26.62;41.22
71194;BME280;58903;47.210;8.618;2023-03-26T16:32:12;93364.78;;;26.61;40.31
71194;BME280;58903;47.210;8.618;2023-03-26T16:35:02;93364.78;;;26.61;41.30
71194;BME280;58903;47.210;8.618;2023-03-26T16:37:33;93379.13;;;26.60;40.44
71194;BME280;58903;47.210;8.618;2023-03-26T16:43:24;93365.34;;;26.60;41.18
71194;BME280;58903;47.210;8.618;2023-03-26T16:46:04;93369.16;;;26.57;40.55
71194;BME280;58903;47.210;8.618;2023-03-26T16:54:56;93331.81;;;26.56;40.63
71194;BME280;58903;47.210;8.618;2023-03-26T17:07:20;93284.75;;;26.54;40.52
71194;BME280;58903;47.210;8.618;2023-03-26T17:43:33;93257.19;;;26.54;39.89
71194;BME280;58903;47.210;8.618;2023-03-26T17:49:24;93247.44;;;26.53;40.90
71194;BME280;58903;47.210;8.618;2023-03-26T17:51:58;93249.66;;;26.54;40.58
71194;BME280;58903;47.210;8.618;2023-03-26T17:54:51;93250.94;;;26.53;40.53
71194;BME280;58903;47.210;8.618;2023-03-26T17:57:52;93242.44;;;26.51;40.54
71194;BME280;58903;47.210;8.618;2023-03-26T18:00:54;93239.91;;;26.53;40.72
71194;BME280;58903;47.210;8.618;2023-03-26T18:03:57;93227.41;;;26.52;40.54
71194;BME280;58903;47.210;8.618;2023-03-26T18:06:48;93212.13;;;26.51;40.50
71194;BME280;58903;47.210;8.618;2023-03-26T18:18:15;93193.38;;;26.50;40.39
71194;BME280;58903;47.210;8.618;2023-03-26T18:20:47;93195.94;;;26.48;40.44
71194;BME280;58903;47.210;8.618;2023-03-26T18:23:48;93207.16;;;26.50;40.31
71194;BME280;58903;47.210;8.618;2023-03-26T18:32:59;93223.50;;;26.48;39.93
71194;BME280;58903;47.210;8.618;2023-03-26T18:35:27;93220.38;;;26.44;40.49
71194;BME280;58903;47.210;8.618;2023-03-26T18:38:22;93222.06;;;26.47;40.41
71194;BME280;58903;47.210;8.618;2023-03-26T18:41:14;93227.56;;;26.47;40.07
71194;BME280;58903;47.210;8.618;2023-03-26T18:43:41;93227.56;;;26.47;40.73
71194;BME280;58903;47.210;8.618;2023-03-26T18:46:11;93235.84;;;26.47;40.39
71194;BME280;58903;47.210;8.618;2023-03-26T18:48:42;93243.88;;;26.45;40.46
71194;BME280;58903;47.210;8.618;2023-03-26T18:51:09;93240.94;;;26.43;40.73
71194;BME280;58903;47.210;8.618;2023-03-26T18:53:50;93242.78;;;26.40;40.48
71194;BME280;58903;47.210;8.618;2023-03-26T18:56:40;93258.97;;;26.44;40.25
71194;BME280;58903;47.210;8.618;2023-03-26T18:59:26;93247.94;;;26.44;40.55
71194;BME280;58903;47.210;8.618;2023-03-26T19:01:57;93243.69;;;26.43;40.39
71194;BME280;58903;47.210;8.618;2023-03-26T19:04:39;93239.69;;;26.44;39.80
71194;BME280;58903;47.210;8.618;2023-03-26T19:07:12;93227.72;;;26.41;40.60
71194;BME280;58903;47.210;8.618;2023-03-26T19:09:51;93219.06;;;26.45;39.84
71194;BME280;58903;47.210;8.618;2023-03-26T19:12:35;93216.88;;;26.43;40.11
71194;BME280;58903;47.210;8.618;2023-03-26T19:15:18;93213.19;;;26.41;40.40
71194;BME280;58903;47.210;8.618;2023-03-26T19:17:59;93202.53;;;26.45;39.85
71194;BME280;58903;47.210;8.618;2023-03-26T19:23:20;93184.53;;;26.44;39.57
71194;BME280;58903;47.210;8.618;2023-03-26T19:25:53;93181.97;;;26.46;40.54
71194;BME280;58903;47.210;8.618;2023-03-26T19:31:32;93170.03;;;26.51;40.13
71194;BME280;58903;47.210;8.618;2023-03-26T19:36:32;93162.47;;;26.44;39.67
71194;BME280;58903;47.210;8.618;2023-03-26T19:42:27;93155.47;;;26.43;39.53
71194;BME280;58903;47.210;8.618;2023-03-26T19:45:16;93154.00;;;26.42;40.12
71194;BME280;58903;47.210;8.618;2023-03-26T19:47:52;93153.63;;;26.38;40.18
71194;BME280;58903;47.210;8.618;2023-03-26T19:50:28;93150.31;;;26.32;40.30
71194;BME280;58903;47.210;8.618;2023-03-26T19:53:28;93154.69;;;26.27;40.02
71194;BME280;58903;47.210;8.618;2023-03-26T19:56:09;93151.53;;;26.23;40.29
71194;BME280;58903;47.210;8.618;2023-03-26T19:58:45;93144.00;;;26.24;40.46
71194;BME280;58903;47.210;8.618;2023-03-26T20:01:37;93152.09;;;26.22;40.09
71194;BME280;58903;47.210;8.618;2023-03-26T20:04:13;93152.63;;;26.20;40.22
71194;BME280;58903;47.210;8.618;2023-03-26T20:06:51;93146.38;;;26.20;40.89
71194;BME280;58903;47.210;8.618;2023-03-26T20:09:17;93149.69;;;26.18;40.95
71194;BME280;58903;47.210;8.618;2023-03-26T20:11:49;93142.50;;;26.15;40.14
71194;BME280;58903;47.210;8.618;2023-03-26T20:14:18;93148.00;;;26.15;40.98
71194;BME280;58903;47.210;8.618;2023-03-26T20:16:52;93143.25;;;26.15;40.45
71194;BME280;58903;47.210;8.618;2023-03-26T20:19:28;93150.56;;;26.13;40.71
71194;BME280;58903;47.210;8.618;2023-03-26T20:22:18;93147.63;;;26.11;41.09
71194;BME280;58903;47.210;8.618;2023-03-26T20:24:49;93166.38;;;26.12;40.28
71194;BME280;58903;47.210;8.618;2023-03-26T20:27:18;93176.66;;;26.12;40.93
71194;BME280;58903;47.210;8.618;2023-03-26T20:30:04;93196.47;;;26.10;40.59
71194;BME280;58903;47.210;8.618;2023-03-26T20:35:54;93185.78;;;26.07;40.61
71194;BME280;58903;47.210;8.618;2023-03-26T20:38:25;93186.34;;;26.05;40.38
71194;BME280;58903;47.210;8.618;2023-03-26T20:40:59;93201.38;;;26.04;40.74
71194;BME280;58903;47.210;8.618;2023-03-26T20:43:25;93211.66;;;26.04;40.95
71194;BME280;58903;47.210;8.618;2023-03-26T20:45:56;93214.97;;;26.02;40.43
71194;BME280;58903;47.210;8.618;2023-03-26T20:48:31;93230.94;;;26.04;41.10
71194;BME280;58903;47.210;8.618;2023-03-26T20:50:58;93237.94;;;26.05;40.90
71194;BME280;58903;47.210;8.618;2023-03-26T20:53:24;93252.47;;;26.05;40.99
71194;BME280;58903;47.210;8.618;2023-03-26T20:55:52;93260.00;;;26.05;41.10
71194;BME280;58903;47.210;8.618;2023-03-26T20:58:25;93264.03;;;26.04;41.21
71194;BME280;58903;47.210;8.618;2023-03-26T21:00:52;93260.75;;;26.05;40.64
71194;BME280;58903;47.210;8.618;2023-03-26T21:03:27;93257.97;;;26.05;40.80
71194;BME280;58903;47.210;8.618;2023-03-26T21:06:05;93250.78;;;26.02;40.37